sensor_id;sensor_type;location;lat;lon;timestamp;pressure;altitude;pressure_sealevel;temperature;humidity
18850;BME280;4989;48.772;9.154;2023-06-04T00:02:29;97968.72;;;21.30;53.90
18850;BME280;4989;48.772;9.154;2023-06-04T00:07:32;97966.22;;;21.80;54.53
18850;BME280;4989;48.772;9.154;2023-06-04T00:12:34;97972.00;;;21.28;52.89
18850;BME280;4989;48.772;9.154;2023-06-04T00:17:37;97962.72;;;21.31;51.84
18850;BME280;4989;48.772;9.154;2023-06-04T00:27:43;97961.69;;;21.83;51.14
18850;BME280;4989;48.772;9.154;2023-06-04T00:32:46;97961.69;;;21.77;49.92
18850;BME280;4989;48.772;9.154;2023-06-04T00:37:49;97962.59;;;21.52;49.53
18850;BME280;4989;48.772;9.154;2023-06-04T00:42:52;97969.91;;;21.55;51.79
18850;BME280;4989;48.772;9.154;2023-06-04T00:47:54;97969.03;;;20.94;50.88
18850;BME280;4989;48.772;9.154;2023-06-04T00:52:57;97969.88;;;21.06;51.77
18850;BME280;4989;48.772;9.154;2023-06-04T00:58:00;97974.94;;;21.56;53.40
18850;BME280;4989;48.772;9.154;2023-06-04T01:03:11;97980.66;;;21.41;51.84
18850;BME280;4989;48.772;9.154;2023-06-04T01:08:16;97982.41;;;21.01;50.84
18850;BME280;4989;48.772;9.154;2023-06-04T01:13:20;97991.16;;;20.94;50.88
18850;BME280;4989;48.772;9.154;2023-06-04T01:18:27;97981.75;;;20.80;51.35
18850;BME280;4989;48.772;9.154;2023-06-04T01:23:50;97986.75;;;19.78;51.94
18850;BME280;4989;48.772;9.154;2023-06-04T01:29:01;97985.78;;;19.81;51.67
18850;BME280;4989;48.772;9.154;2023-06-04T01:34:08;97987.31;;;20.28;59.60
18850;BME280;4989;48.772;9.154;2023-06-04T01:39:10;97985.34;;;20.92;51.32
18850;BME280;4989;48.772;9.154;2023-06-04T01:44:13;97981.50;;;21.16;51.29
18850;BME280;4989;48.772;9.154;2023-06-04T01:49:15;97975.00;;;20.87;49.44
18850;BME280;4989;48.772;9.154;2023-06-04T01:54:18;97983.44;;;19.94;50.81
18850;BME280;4989;48.772;9.154;2023-06-04T01:59:20;97981.34;;;19.48;53.58
18850;BME280;4989;48.772;9.154;2023-06-04T02:04:23;97979.31;;;19.43;54.02
18850;BME280;4989;48.772;9.154;2023-06-04T02:09:25;97978.28;;;20.28;57.51
18850;BME280;4989;48.772;9.154;2023-06-04T02:14:28;97982.88;;;20.94;56.41
18850;BME280;4989;48.772;9.154;2023-06-04T02:19:30;97989.47;;;20.71;55.52
18850;BME280;4989;48.772;9.154;2023-06-04T02:24:35;97980.84;;;20.63;54.12
18850;BME280;4989;48.772;9.154;2023-06-04T02:29:39;97985.44;;;21.03;56.92
18850;BME280;4989;48.772;9.154;2023-06-04T02:34:41;97994.94;;;20.65;50.40
18850;BME280;4989;48.772;9.154;2023-06-04T02:39:44;97988.69;;;20.44;52.53
18850;BME280;4989;48.772;9.154;2023-06-04T02:44:47;97990.63;;;20.58;52.14
18850;BME280;4989;48.772;9.154;2023-06-04T02:49:49;97994.34;;;20.87;55.70
18850;BME280;4989;48.772;9.154;2023-06-04T02:54:51;97990.19;;;21.40;56.31
18850;BME280;4989;48.772;9.154;2023-06-04T02:59:54;97996.53;;;21.15;54.27
18850;BME280;4989;48.772;9.154;2023-06-04T03:04:57;97991.47;;;21.08;55.52
18850;BME280;4989;48.772;9.154;2023-06-04T03:09:59;97996.53;;;21.15;51.58
18850;BME280;4989;48.772;9.154;2023-06-04T03:15:03;97996.94;;;21.34;55.90
18850;BME280;4989;48.772;9.154;2023-06-04T03:20:07;97996.19;;;21.33;55.30
18850;BME280;4989;48.772;9.154;2023-06-04T03:25:10;98008.88;;;21.57;54.92
18850;BME280;4989;48.772;9.154;2023-06-04T03:30:12;98011.22;;;20.57;48.92
18850;BME280;4989;48.772;9.154;2023-06-04T03:35:31;98022.44;;;20.80;56.74
18850;BME280;4989;48.772;9.154;2023-06-04T03:40:34;98019.91;;;21.45;54.92
18850;BME280;4989;48.772;9.154;2023-06-04T03:45:39;98015.66;;;21.13;49.65
18850;BME280;4989;48.772;9.154;2023-06-04T03:50:42;98015.53;;;21.33;55.29
18850;BME280;4989;48.772;9.154;2023-06-04T03:55:49;98022.34;;;21.00;53.20
18850;BME280;4989;48.772;9.154;2023-06-04T04:00:52;98029.28;;;21.22;54.63
18850;BME280;4989;48.772;9.154;2023-06-04T04:05:55;98025.16;;;21.43;52.72
18850;BME280;4989;48.772;9.154;2023-06-04T04:10:57;98037.59;;;20.90;49.10
18850;BME280;4989;48.772;9.154;2023-06-04T04:16:00;98027.41;;;21.08;54.83
18850;BME280;4989;48.772;9.154;2023-06-04T04:21:05;98026.09;;;21.35;54.12
18850;BME280;4989;48.772;9.154;2023-06-04T04:26:08;98034.75;;;21.54;54.04
18850;BME280;4989;48.772;9.154;2023-06-04T04:31:12;98043.59;;;21.58;53.34
18850;BME280;4989;48.772;9.154;2023-06-04T04:36:15;98048.16;;;21.61;53.32
18850;BME280;4989;48.772;9.154;2023-06-04T04:41:22;98044.63;;;21.66;51.69
18850;BME280;4989;48.772;9.154;2023-06-04T04:46:25;98056.75;;;21.74;53.09
18850;BME280;4989;48.772;9.154;2023-06-04T04:51:28;98051.53;;;21.82;52.27
18850;BME280;4989;48.772;9.154;2023-06-04T04:56:35;98053.00;;;21.34;50.18
18850;BME280;4989;48.772;9.154;2023-06-04T05:01:38;98058.34;;;21.12;52.14
18850;BME280;4989;48.772;9.154;2023-06-04T05:06:41;98062.88;;;21.15;51.90
18850;BME280;4989;48.772;9.154;2023-06-04T05:11:44;98077.09;;;21.65;53.33
18850;BME280;4989;48.772;9.154;2023-06-04T05:16:47;98069.59;;;21.34;49.01
18850;BME280;4989;48.772;9.154;2023-06-04T05:21:51;98073.16;;;20.77;46.48
18850;BME280;4989;48.772;9.154;2023-06-04T05:26:55;98077.41;;;20.78;50.56
18850;BME280;4989;48.772;9.154;2023-06-04T05:31:59;98094.72;;;20.73;44.51
18850;BME280;4989;48.772;9.154;2023-06-04T05:37:02;98086.59;;;20.64;46.45
18850;BME280;4989;48.772;9.154;2023-06-04T05:42:07;98094.66;;;21.25;54.01
18850;BME280;4989;48.772;9.154;2023-06-04T05:47:10;98094.03;;;21.41;54.32
18850;BME280;4989;48.772;9.154;2023-06-04T05:52:12;98089.72;;;21.09;46.95
18850;BME280;4989;48.772;9.154;2023-06-04T05:57:17;98094.44;;;21.66;53.37
18850;BME280;4989;48.772;9.154;2023-06-04T06:02:19;98100.16;;;22.00;52.94
18850;BME280;4989;48.772;9.154;2023-06-04T06:07:22;98110.69;;;21.95;50.36
18850;BME280;4989;48.772;9.154;2023-06-04T06:12:24;98107.72;;;22.05;51.65
18850;BME280;4989;48.772;9.154;2023-06-04T06:17:27;98099.78;;;22.18;51.80
18850;BME280;4989;48.772;9.154;2023-06-04T06:22:30;98111.13;;;22.26;50.92
18850;BME280;4989;48.772;9.154;2023-06-04T06:27:33;98120.78;;;21.99;44.37
18850;BME280;4989;48.772;9.154;2023-06-04T06:32:36;98121.09;;;21.63;49.29
18850;BME280;4989;48.772;9.154;2023-06-04T06:37:38;98119.69;;;21.79;49.74
18850;BME280;4989;48.772;9.154;2023-06-04T06:42:49;98118.06;;;21.30;51.61
18850;BME280;4989;48.772;9.154;2023-06-04T06:47:52;98134.25;;;22.23;50.76
18850;BME280;4989;48.772;9.154;2023-06-04T06:52:55;98127.53;;;22.40;50.49
18850;BME280;4989;48.772;9.154;2023-06-04T06:58:00;98124.09;;;22.74;49.33
18850;BME280;4989;48.772;9.154;2023-06-04T07:03:02;98119.56;;;22.76;44.14
18850;BME280;4989;48.772;9.154;2023-06-04T07:08:06;98126.03;;;22.51;40.83
18850;BME280;4989;48.772;9.154;2023-06-04T07:13:08;98126.34;;;22.64;40.97
18850;BME280;4989;48.772;9.154;2023-06-04T07:18:10;98133.22;;;22.91;47.97
18850;BME280;4989;48.772;9.154;2023-06-04T07:23:13;98137.03;;;23.33;47.43
18850;BME280;4989;48.772;9.154;2023-06-04T07:28:15;98135.75;;;23.51;48.02
18850;BME280;4989;48.772;9.154;2023-06-04T07:33:18;98137.28;;;23.63;40.60
18850;BME280;4989;48.772;9.154;2023-06-04T07:38:20;98130.97;;;23.35;40.94
18850;BME280;4989;48.772;9.154;2023-06-04T07:43:22;98142.09;;;23.51;40.96
18850;BME280;4989;48.772;9.154;2023-06-04T07:48:25;98123.91;;;23.45;44.31
18850;BME280;4989;48.772;9.154;2023-06-04T07:53:32;98129.69;;;23.58;41.59
18850;BME280;4989;48.772;9.154;2023-06-04T07:58:34;98123.63;;;23.76;47.13
18850;BME280;4989;48.772;9.154;2023-06-04T08:03:36;98120.09;;;23.59;47.71
18850;BME280;4989;48.772;9.154;2023-06-04T08:08:43;98112.81;;;24.37;45.68
18850;BME280;4989;48.772;9.154;2023-06-04T08:13:47;98108.19;;;24.56;45.79
18850;BME280;4989;48.772;9.154;2023-06-04T08:18:49;98114.25;;;24.60;45.67
18850;BME280;4989;48.772;9.154;2023-06-04T08:23:51;98101.75;;;24.78;44.59
18850;BME280;4989;48.772;9.154;2023-06-04T08:28:54;98109.19;;;25.61;42.86
18850;BME280;4989;48.772;9.154;2023-06-04T08:33:57;98109.88;;;25.42;41.78
18850;BME280;4989;48.772;9.154;2023-06-04T08:38:59;98109.47;;;24.97;44.83
18850;BME280;4989;48.772;9.154;2023-06-04T08:44:05;98105.22;;;25.75;42.06
18850;BME280;4989;48.772;9.154;2023-06-04T08:49:08;98106.06;;;25.70;43.11
18850;BME280;4989;48.772;9.154;2023-06-04T08:54:11;98103.25;;;25.21;44.31
18850;BME280;4989;48.772;9.154;2023-06-04T08:59:16;98104.13;;;25.59;43.65
18850;BME280;4989;48.772;9.154;2023-06-04T09:04:19;98101.72;;;25.99;43.24
18850;BME280;4989;48.772;9.154;2023-06-04T09:09:22;98116.28;;;25.86;42.68
18850;BME280;4989;48.772;9.154;2023-06-04T09:14:26;98111.97;;;26.10;43.46
18850;BME280;4989;48.772;9.154;2023-06-04T09:19:28;98111.69;;;27.53;39.91
18850;BME280;4989;48.772;9.154;2023-06-04T09:24:47;98117.69;;;28.64;37.61
18850;BME280;4989;48.772;9.154;2023-06-04T09:29:54;98112.66;;;29.17;37.66
18850;BME280;4989;48.772;9.154;2023-06-04T09:35:13;98108.09;;;29.56;35.88
18850;BME280;4989;48.772;9.154;2023-06-04T09:40:16;98118.19;;;30.17;36.03
18850;BME280;4989;48.772;9.154;2023-06-04T09:45:32;98113.25;;;30.82;33.11
18850;BME280;4989;48.772;9.154;2023-06-04T09:50:36;98102.81;;;31.06;31.17
18850;BME280;4989;48.772;9.154;2023-06-04T09:55:44;98107.09;;;31.99;31.81
18850;BME280;4989;48.772;9.154;2023-06-04T10:00:47;98101.84;;;31.87;33.24
18850;BME280;4989;48.772;9.154;2023-06-04T10:05:50;98096.81;;;31.32;35.42
18850;BME280;4989;48.772;9.154;2023-06-04T10:10:58;98104.31;;;31.53;34.19
18850;BME280;4989;48.772;9.154;2023-06-04T10:16:07;98102.03;;;31.74;34.11
18850;BME280;4989;48.772;9.154;2023-06-04T10:21:23;98099.06;;;31.11;28.80
18850;BME280;4989;48.772;9.154;2023-06-04T10:26:26;98098.50;;;31.12;29.22
18850;BME280;4989;48.772;9.154;2023-06-04T10:31:29;98092.44;;;32.56;28.00
18850;BME280;4989;48.772;9.154;2023-06-04T10:36:45;98092.91;;;33.02;28.14
18850;BME280;4989;48.772;9.154;2023-06-04T10:42:01;98089.31;;;33.35;26.30
18850;BME280;4989;48.772;9.154;2023-06-04T10:47:05;98090.59;;;33.34;28.13
18850;BME280;4989;48.772;9.154;2023-06-04T10:52:11;98081.25;;;33.06;28.50
18850;BME280;4989;48.772;9.154;2023-06-04T10:57:15;98084.75;;;34.16;27.79
18850;BME280;4989;48.772;9.154;2023-06-04T11:02:19;98072.78;;;34.26;27.37
18850;BME280;4989;48.772;9.154;2023-06-04T11:07:21;98078.75;;;34.12;30.52
18850;BME280;4989;48.772;9.154;2023-06-04T11:12:23;98060.91;;;33.58;31.30
18850;BME280;4989;48.772;9.154;2023-06-04T11:17:25;98065.47;;;33.53;31.54
18850;BME280;4989;48.772;9.154;2023-06-04T11:22:28;98073.59;;;34.01;29.53
18850;BME280;4989;48.772;9.154;2023-06-04T11:27:33;98076.75;;;34.23;29.57
18850;BME280;4989;48.772;9.154;2023-06-04T11:32:38;98073.16;;;34.94;27.28
18850;BME280;4989;48.772;9.154;2023-06-04T11:37:40;98064.13;;;34.68;25.69
18850;BME280;4989;48.772;9.154;2023-06-04T11:42:44;98071.13;;;35.04;28.01
18850;BME280;4989;48.772;9.154;2023-06-04T11:47:55;98073.47;;;34.98;29.14
18850;BME280;4989;48.772;9.154;2023-06-04T11:52:59;98068.63;;;36.32;24.14
18850;BME280;4989;48.772;9.154;2023-06-04T11:58:01;98059.53;;;36.43;23.38
18850;BME280;4989;48.772;9.154;2023-06-04T12:03:04;98069.31;;;35.45;27.53
18850;BME280;4989;48.772;9.154;2023-06-04T12:08:10;98044.75;;;35.48;27.67
18850;BME280;4989;48.772;9.154;2023-06-04T12:13:12;98043.69;;;35.43;26.72
18850;BME280;4989;48.772;9.154;2023-06-04T12:18:24;98054.03;;;34.75;29.18
18850;BME280;4989;48.772;9.154;2023-06-04T12:23:26;98049.63;;;34.54;29.47
18850;BME280;4989;48.772;9.154;2023-06-04T12:28:29;98046.94;;;33.94;29.39
18850;BME280;4989;48.772;9.154;2023-06-04T12:33:31;98040.25;;;34.07;29.10
18850;BME280;4989;48.772;9.154;2023-06-04T12:38:33;98052.19;;;34.97;25.74
18850;BME280;4989;48.772;9.154;2023-06-04T12:43:35;98043.13;;;34.98;27.87
18850;BME280;4989;48.772;9.154;2023-06-04T12:48:39;98045.81;;;34.59;29.85
18850;BME280;4989;48.772;9.154;2023-06-04T12:53:42;98060.50;;;33.96;28.52
18850;BME280;4989;48.772;9.154;2023-06-04T12:58:45;98038.00;;;34.50;26.86
18850;BME280;4989;48.772;9.154;2023-06-04T13:03:47;98039.47;;;34.24;30.40
18850;BME280;4989;48.772;9.154;2023-06-04T13:08:49;98037.53;;;35.08;26.46
18850;BME280;4989;48.772;9.154;2023-06-04T13:13:52;98028.78;;;35.14;25.06
18850;BME280;4989;48.772;9.154;2023-06-04T13:18:54;98018.38;;;34.52;28.26
18850;BME280;4989;48.772;9.154;2023-06-04T13:23:56;98025.09;;;34.84;24.49
18850;BME280;4989;48.772;9.154;2023-06-04T13:28:58;98027.06;;;33.15;26.99
18850;BME280;4989;48.772;9.154;2023-06-04T13:34:00;98038.09;;;33.81;29.93
18850;BME280;4989;48.772;9.154;2023-06-04T13:39:22;98029.47;;;33.79;29.92
18850;BME280;4989;48.772;9.154;2023-06-04T13:44:24;98028.84;;;33.97;29.11
18850;BME280;4989;48.772;9.154;2023-06-04T13:49:28;98028.63;;;32.83;30.92
18850;BME280;4989;48.772;9.154;2023-06-04T13:54:30;98022.69;;;32.39;31.72
18850;BME280;4989;48.772;9.154;2023-06-04T13:59:34;98020.88;;;31.78;28.20
18850;BME280;4989;48.772;9.154;2023-06-04T14:04:36;98024.13;;;31.59;32.63
18850;BME280;4989;48.772;9.154;2023-06-04T14:09:38;98015.75;;;30.90;32.70
18850;BME280;4989;48.772;9.154;2023-06-04T14:14:41;98017.78;;;31.28;31.51
18850;BME280;4989;48.772;9.154;2023-06-04T14:19:44;98018.34;;;31.03;34.27
18850;BME280;4989;48.772;9.154;2023-06-04T14:24:47;98012.31;;;30.53;32.32
18850;BME280;4989;48.772;9.154;2023-06-04T14:29:49;98014.06;;;31.02;30.77
18850;BME280;4989;48.772;9.154;2023-06-04T14:34:51;98005.59;;;31.56;28.82
18850;BME280;4989;48.772;9.154;2023-06-04T14:39:53;98007.28;;;31.52;26.81
18850;BME280;4989;48.772;9.154;2023-06-04T14:44:56;98006.94;;;31.17;32.38
18850;BME280;4989;48.772;9.154;2023-06-04T14:49:58;98005.78;;;31.27;30.95
18850;BME280;4989;48.772;9.154;2023-06-04T14:55:00;97984.25;;;30.61;27.58
18850;BME280;4989;48.772;9.154;2023-06-04T15:00:03;97982.22;;;31.08;28.58
18850;BME280;4989;48.772;9.154;2023-06-04T15:05:05;97982.00;;;30.60;34.12
18850;BME280;4989;48.772;9.154;2023-06-04T15:10:08;97972.31;;;30.01;34.69
18850;BME280;4989;48.772;9.154;2023-06-04T15:15:10;97981.13;;;29.04;37.37
18850;BME280;4989;48.772;9.154;2023-06-04T15:20:13;97979.22;;;28.99;32.95
18850;BME280;4989;48.772;9.154;2023-06-04T15:25:15;97973.34;;;28.68;35.68
18850;BME280;4989;48.772;9.154;2023-06-04T15:30:17;97981.88;;;28.42;33.58
18850;BME280;4989;48.772;9.154;2023-06-04T15:35:20;97974.56;;;28.39;35.91
18850;BME280;4989;48.772;9.154;2023-06-04T15:40:22;97975.63;;;28.01;37.94
18850;BME280;4989;48.772;9.154;2023-06-04T15:45:25;97967.72;;;27.66;37.73
18850;BME280;4989;48.772;9.154;2023-06-04T15:50:27;97966.91;;;27.31;37.40
18850;BME280;4989;48.772;9.154;2023-06-04T15:55:29;97966.38;;;27.32;38.80
18850;BME280;4989;48.772;9.154;2023-06-04T16:00:32;97954.53;;;27.13;38.54
18850;BME280;4989;48.772;9.154;2023-06-04T16:05:34;97960.47;;;26.77;38.89
18850;BME280;4989;48.772;9.154;2023-06-04T16:10:36;97955.84;;;26.66;39.18
18850;BME280;4989;48.772;9.154;2023-06-04T16:15:38;97955.63;;;26.64;37.70
18850;BME280;4989;48.772;9.154;2023-06-04T16:20:41;97941.44;;;26.30;40.23
18850;BME280;4989;48.772;9.154;2023-06-04T16:25:43;97952.50;;;26.55;35.54
18850;BME280;4989;48.772;9.154;2023-06-04T16:30:46;97939.78;;;26.86;37.89
18850;BME280;4989;48.772;9.154;2023-06-04T16:35:48;97943.22;;;26.46;38.98
18850;BME280;4989;48.772;9.154;2023-06-04T16:40:51;97929.66;;;26.37;40.14
18850;BME280;4989;48.772;9.154;2023-06-04T16:45:53;97937.63;;;26.46;39.72
18850;BME280;4989;48.772;9.154;2023-06-04T16:50:55;97937.41;;;26.12;40.69
18850;BME280;4989;48.772;9.154;2023-06-04T16:55:58;97935.59;;;26.15;40.49
18850;BME280;4989;48.772;9.154;2023-06-04T17:01:00;97938.31;;;26.20;37.54
18850;BME280;4989;48.772;9.154;2023-06-04T17:06:03;97942.44;;;26.14;37.50
18850;BME280;4989;48.772;9.154;2023-06-04T17:11:06;97947.22;;;26.00;39.79
18850;BME280;4989;48.772;9.154;2023-06-04T17:16:08;97936.06;;;25.81;40.18
18850;BME280;4989;48.772;9.154;2023-06-04T17:21:11;97944.06;;;25.90;39.21
18850;BME280;4989;48.772;9.154;2023-06-04T17:26:14;97934.53;;;25.80;41.13
18850;BME280;4989;48.772;9.154;2023-06-04T17:31:17;97932.31;;;25.97;39.83
18850;BME280;4989;48.772;9.154;2023-06-04T17:36:21;97940.41;;;25.76;37.08
18850;BME280;4989;48.772;9.154;2023-06-04T17:41:23;97949.44;;;25.64;40.68
18850;BME280;4989;48.772;9.154;2023-06-04T17:46:25;97944.00;;;25.52;40.87
18850;BME280;4989;48.772;9.154;2023-06-04T17:51:27;97946.50;;;25.56;40.29
18850;BME280;4989;48.772;9.154;2023-06-04T17:56:29;97945.50;;;25.53;41.46
18850;BME280;4989;48.772;9.154;2023-06-04T18:01:32;97957.59;;;25.37;42.14
18850;BME280;4989;48.772;9.154;2023-06-04T18:06:34;97952.97;;;25.21;41.55
18850;BME280;4989;48.772;9.154;2023-06-04T18:11:38;97953.31;;;25.36;41.86
18850;BME280;4989;48.772;9.154;2023-06-04T18:16:40;97958.16;;;25.54;40.54
18850;BME280;4989;48.772;9.154;2023-06-04T18:21:43;97972.78;;;25.11;42.79
18850;BME280;4989;48.772;9.154;2023-06-04T18:26:45;97970.59;;;24.99;42.52
18850;BME280;4989;48.772;9.154;2023-06-04T18:31:48;97978.75;;;24.97;42.77
18850;BME280;4989;48.772;9.154;2023-06-04T18:36:50;97979.13;;;24.82;43.50
18850;BME280;4989;48.772;9.154;2023-06-04T18:41:54;97978.09;;;24.85;41.74
18850;BME280;4989;48.772;9.154;2023-06-04T18:46:58;97978.31;;;24.87;43.09
18850;BME280;4989;48.772;9.154;2023-06-04T18:52:03;97981.63;;;24.85;42.17
18850;BME280;4989;48.772;9.154;2023-06-04T18:57:05;97978.19;;;24.74;43.30
18850;BME280;4989;48.772;9.154;2023-06-04T19:02:10;97984.47;;;24.74;40.87
18850;BME280;4989;48.772;9.154;2023-06-04T19:07:12;97981.69;;;24.74;41.32
18850;BME280;4989;48.772;9.154;2023-06-04T19:12:14;97979.66;;;24.75;41.17
18850;BME280;4989;48.772;9.154;2023-06-04T19:17:19;97987.81;;;24.73;42.10
18850;BME280;4989;48.772;9.154;2023-06-04T19:22:21;97994.63;;;24.72;41.16
18850;BME280;4989;48.772;9.154;2023-06-04T19:27:24;97994.28;;;24.81;36.92
18850;BME280;4989;48.772;9.154;2023-06-04T19:32:26;98003.91;;;24.80;35.67
18850;BME280;4989;48.772;9.154;2023-06-04T19:37:30;98005.97;;;24.74;36.40
18850;BME280;4989;48.772;9.154;2023-06-04T19:42:32;98018.72;;;24.63;39.43
18850;BME280;4989;48.772;9.154;2023-06-04T19:47:34;98025.09;;;24.53;34.57
18850;BME280;4989;48.772;9.154;2023-06-04T19:52:37;98034.22;;;24.48;40.94
18850;BME280;4989;48.772;9.154;2023-06-04T19:57:40;98039.97;;;24.55;37.13
18850;BME280;4989;48.772;9.154;2023-06-04T20:02:43;98039.00;;;24.47;41.85
18850;BME280;4989;48.772;9.154;2023-06-04T20:07:45;98047.31;;;24.53;40.68
18850;BME280;4989;48.772;9.154;2023-06-04T20:12:47;98051.38;;;24.52;40.76
18850;BME280;4989;48.772;9.154;2023-06-04T20:17:50;98056.22;;;24.45;40.35
18850;BME280;4989;48.772;9.154;2023-06-04T20:22:52;98048.63;;;24.46;41.14
18850;BME280;4989;48.772;9.154;2023-06-04T20:27:54;98053.44;;;24.40;40.97
18850;BME280;4989;48.772;9.154;2023-06-04T20:32:57;98053.00;;;24.30;39.67
18850;BME280;4989;48.772;9.154;2023-06-04T20:37:59;98054.28;;;24.23;41.03
18850;BME280;4989;48.772;9.154;2023-06-04T20:43:03;98061.66;;;24.15;39.53
18850;BME280;4989;48.772;9.154;2023-06-04T20:48:05;98064.78;;;23.95;38.31
18850;BME280;4989;48.772;9.154;2023-06-04T20:53:07;98057.47;;;23.92;41.50
18850;BME280;4989;48.772;9.154;2023-06-04T20:58:10;98061.72;;;23.98;42.74
18850;BME280;4989;48.772;9.154;2023-06-04T21:03:12;98062.22;;;24.03;40.88
18850;BME280;4989;48.772;9.154;2023-06-04T21:08:15;98058.72;;;23.96;38.16
18850;BME280;4989;48.772;9.154;2023-06-04T21:13:18;98066.63;;;23.59;37.29
18850;BME280;4989;48.772;9.154;2023-06-04T21:18:20;98065.94;;;23.19;38.44
18850;BME280;4989;48.772;9.154;2023-06-04T21:23:24;98075.22;;;23.32;39.18
18850;BME280;4989;48.772;9.154;2023-06-04T21:28:27;98071.19;;;23.45;39.78
18850;BME280;4989;48.772;9.154;2023-06-04T21:33:29;98076.47;;;23.54;39.47
18850;BME280;4989;48.772;9.154;2023-06-04T21:38:31;98063.38;;;23.32;39.47
18850;BME280;4989;48.772;9.154;2023-06-04T21:43:33;98072.75;;;23.12;43.32
18850;BME280;4989;48.772;9.154;2023-06-04T21:48:36;98078.78;;;23.27;41.65
18850;BME280;4989;48.772;9.154;2023-06-04T21:53:38;98078.03;;;23.04;38.07
18850;BME280;4989;48.772;9.154;2023-06-04T21:58:40;98074.16;;;22.57;38.73
18850;BME280;4989;48.772;9.154;2023-06-04T22:03:43;98073.03;;;22.15;38.82
18850;BME280;4989;48.772;9.154;2023-06-04T22:08:46;98069.00;;;22.16;39.50
18850;BME280;4989;48.772;9.154;2023-06-04T22:13:48;98074.63;;;22.27;38.87
18850;BME280;4989;48.772;9.154;2023-06-04T22:18:50;98075.41;;;21.79;39.20
18850;BME280;4989;48.772;9.154;2023-06-04T22:23:54;98064.69;;;21.49;40.23
18850;BME280;4989;48.772;9.154;2023-06-04T22:28:57;98076.00;;;21.20;40.37
18850;BME280;4989;48.772;9.154;2023-06-04T22:33:59;98070.56;;;20.99;40.15
18850;BME280;4989;48.772;9.154;2023-06-04T22:39:01;98063.81;;;21.00;40.32
18850;BME280;4989;48.772;9.154;2023-06-04T22:44:04;98061.38;;;21.14;40.65
18850;BME280;4989;48.772;9.154;2023-06-04T22:49:06;98057.63;;;21.17;40.42
18850;BME280;4989;48.772;9.154;2023-06-04T22:54:08;98065.94;;;21.17;40.02
18850;BME280;4989;48.772;9.154;2023-06-04T22:59:10;98067.13;;;21.36;40.58
18850;BME280;4989;48.772;9.154;2023-06-04T23:04:13;98063.88;;;21.43;40.06
18850;BME280;4989;48.772;9.154;2023-06-04T23:09:15;98059.50;;;21.68;44.05
18850;BME280;4989;48.772;9.154;2023-06-04T23:14:17;98066.97;;;22.11;39.70
18850;BME280;4989;48.772;9.154;2023-06-04T23:19:20;98058.63;;;21.94;39.52
18850;BME280;4989;48.772;9.154;2023-06-04T23:24:22;98060.44;;;21.60;40.16
18850;BME280;4989;48.772;9.154;2023-06-04T23:29:24;98050.06;;;21.43;40.15
18850;BME280;4989;48.772;9.154;2023-06-04T23:34:26;98051.41;;;21.22;40.41
18850;BME280;4989;48.772;9.154;2023-06-04T23:39:28;98054.16;;;21.22;43.72
18850;BME280;4989;48.772;9.154;2023-06-04T23:44:30;98051.53;;;21.39;40.65
18850;BME280;4989;48.772;9.154;2023-06-04T23:49:32;98052.19;;;21.28;42.18
18850;BME280;4989;48.772;9.154;2023-06-04T23:54:35;98043.53;;;21.09;41.31
18850;BME280;4989;48.772;9.154;2023-06-04T23:59:37;98043.03;;;21.11;40.71
